Time;durP1;ratioP1;P1;durP2;ratioP2;P2;SDS_P1;SDS_P2;PMS_P1;PMS_P2;Temp;Humidity;BMP_temperature;BMP_pressure;BME280_temperature;BME280_humidity;BME280_pressure;Samples;Min_cycle;Max_cycle;Signal;HPM_P1;HPM_P2
2022/05/31 00:00:26;;;;;;;1.17;0.47;;;11.10;99.90;;;;;;4419679;32;20517;-68
2022/05/31 00:02:54;;;;;;;0.20;0.20;;;11.10;99.90;;;;;;4441313;32;20118;-68
2022/05/31 00:05:20;;;;;;;2.15;1.27;;;11.00;99.90;;;;;;4441474;32;20065;-68
2022/05/31 00:07:45;;;;;;;1.60;0.37;;;11.00;99.90;;;;;;4444677;32;20097;-68
2022/05/31 00:10:13;;;;;;;0.70;0.70;;;11.00;99.90;;;;;;4440186;32;20126;-68
2022/05/31 00:12:40;;;;;;;0.40;0.40;;;11.00;99.90;;;;;;4444159;32;20203;-68
2022/05/31 00:15:06;;;;;;;0.37;0.37;;;10.90;99.90;;;;;;4446510;32;20425;-68
2022/05/31 00:17:32;;;;;;;0.20;0.20;;;10.80;99.90;;;;;;4444091;32;20057;-68
2022/05/31 00:19:57;;;;;;;2.55;1.50;;;10.90;99.90;;;;;;4439857;32;20088;-68
2022/05/31 00:22:25;;;;;;;0.30;0.30;;;11.00;99.90;;;;;;4442837;32;20089;-68
2022/05/31 00:24:51;;;;;;;0.20;0.20;;;11.00;99.90;;;;;;4444676;32;20057;-68
2022/05/31 00:27:19;;;;;;;0.50;0.50;;;11.10;99.90;;;;;;4438326;32;20563;-68
2022/05/31 00:29:47;;;;;;;0.20;0.20;;;11.10;99.90;;;;;;4421760;32;20111;-68
2022/05/31 00:32:15;;;;;;;0.28;0.28;;;11.10;99.90;;;;;;4432985;32;20077;-68
2022/05/31 00:34:43;;;;;;;0.30;0.30;;;10.90;99.90;;;;;;4440195;32;20091;-68
2022/05/31 00:37:09;;;;;;;18.52;2.62;;;11.00;99.90;;;;;;4441297;32;20124;-68
2022/05/31 00:39:35;;;;;;;0.22;0.22;;;10.90;99.90;;;;;;4443775;32;20555;-68
2022/05/31 00:42:08;;;;;;;0.30;0.30;;;10.90;99.90;;;;;;4442277;32;20064;-68
2022/05/31 00:44:35;;;;;;;0.40;0.40;;;11.00;99.90;;;;;;4445427;32;20061;-68
2022/05/31 00:47:04;;;;;;;0.37;0.37;;;11.00;99.90;;;;;;4442104;32;20061;-68
2022/05/31 00:49:43;;;;;;;0.22;0.22;;;10.90;99.90;;;;;;4444622;32;20057;-68
2022/05/31 00:52:15;;;;;;;2.37;0.70;;;10.90;99.90;;;;;;4439965;32;20061;-68
2022/05/31 00:54:47;;;;;;;0.40;0.40;;;11.00;99.90;;;;;;4447237;32;20081;-68
2022/05/31 00:57:13;;;;;;;0.30;0.30;;;11.00;99.90;;;;;;4445473;32;20057;-68
2022/05/31 00:59:48;;;;;;;0.30;0.30;;;11.00;99.90;;;;;;4422037;32;20132;-68
2022/05/31 01:02:17;;;;;;;1.80;0.45;;;11.00;99.90;;;;;;4431178;32;20512;-68
2022/05/31 01:04:49;;;;;;;1.02;0.88;;;11.10;99.90;;;;;;4438087;32;20104;-68
2022/05/31 01:07:15;;;;;;;0.68;0.68;;;11.10;99.90;;;;;;4440321;32;20093;-68
2022/05/31 01:09:41;;;;;;;0.37;0.37;;;11.00;99.90;;;;;;4449449;32;20423;-68
2022/05/31 01:12:07;;;;;;;23.10;1.08;;;11.00;99.90;;;;;;4441859;32;20061;-68
2022/05/31 01:14:32;;;;;;;0.30;0.30;;;11.10;99.90;;;;;;4441956;32;20069;-68
2022/05/31 01:17:02;;;;;;;0.28;0.28;;;11.10;99.90;;;;;;4440385;32;20419;-68
2022/05/31 01:20:00;;;;;;;0.45;0.45;;;11.10;99.90;;;;;;4442447;32;20166;-68
2022/05/31 01:22:16;;;;;;;0.62;0.62;;;11.10;99.90;;;;;;4435787;32;20423;-68
2022/05/31 01:24:51;;;;;;;0.30;0.30;;;11.10;99.90;;;;;;4443640;32;20060;-68
2022/05/31 01:27:33;;;;;;;0.30;0.30;;;11.10;99.90;;;;;;4432445;32;20167;-68
2022/05/31 01:30:01;;;;;;;0.30;0.30;;;11.10;99.90;;;;;;4416323;32;101750;-68
2022/05/31 01:32:27;;;;;;;0.30;0.30;;;11.10;99.90;;;;;;4431878;32;20588;-68
2022/05/31 01:34:59;;;;;;;0.98;0.32;;;11.10;99.90;;;;;;4439443;32;20134;-68
2022/05/31 01:37:38;;;;;;;0.40;0.40;;;11.10;99.90;;;;;;4443826;32;20076;-68
2022/05/31 01:40:09;;;;;;;0.30;0.30;;;11.10;99.90;;;;;;4441007;32;20131;-68
2022/05/31 01:42:42;;;;;;;0.20;0.20;;;11.00;99.90;;;;;;4443533;32;20088;-68
2022/05/31 01:45:12;;;;;;;24.45;0.70;;;10.80;99.90;;;;;;4442416;32;20073;-68
2022/05/31 01:47:38;;;;;;;0.30;0.30;;;10.80;99.90;;;;;;4440124;32;20133;-68
2022/05/31 01:50:08;;;;;;;0.25;0.25;;;10.80;99.90;;;;;;4444924;32;20146;-68
2022/05/31 01:52:34;;;;;;;2.47;0.70;;;10.70;99.90;;;;;;4436540;32;20081;-68
2022/05/31 01:54:59;;;;;;;0.43;0.43;;;10.80;99.90;;;;;;4444456;32;20124;-68
2022/05/31 01:57:28;;;;;;;0.40;0.40;;;10.70;99.90;;;;;;4435317;32;20544;-68
2022/05/31 02:00:06;;;;;;;0.40;0.40;;;10.60;99.90;;;;;;4415749;32;20510;-69
2022/05/31 02:02:32;;;;;;;0.57;0.57;;;10.50;99.90;;;;;;4435209;32;20053;-68
2022/05/31 02:04:57;;;;;;;0.70;0.70;;;10.40;99.90;;;;;;4436986;32;20522;-68
2022/05/31 02:07:25;;;;;;;0.30;0.30;;;10.30;99.90;;;;;;4442296;32;20057;-68
2022/05/31 02:09:53;;;;;;;0.30;0.30;;;10.30;99.90;;;;;;4442678;32;20089;-68
2022/05/31 02:12:20;;;;;;;0.30;0.30;;;10.30;99.90;;;;;;4442160;32;20076;-68
2022/05/31 02:14:46;;;;;;;0.37;0.37;;;10.30;99.90;;;;;;4440034;32;20439;-68
2022/05/31 02:17:12;;;;;;;0.60;0.60;;;10.30;99.90;;;;;;4436285;32;20066;-68
2022/05/31 02:19:38;;;;;;;0.40;0.40;;;10.40;99.90;;;;;;4441802;32;20074;-68
2022/05/31 02:22:08;;;;;;;1.67;0.40;;;10.40;99.90;;;;;;4443379;32;20118;-68
2022/05/31 02:24:34;;;;;;;0.30;0.30;;;10.30;99.90;;;;;;4442091;32;20101;-68
2022/05/31 02:27:01;;;;;;;0.62;0.62;;;10.40;99.90;;;;;;4441705;32;20064;-68
2022/05/31 02:29:31;;;;;;;0.28;0.28;;;10.40;99.90;;;;;;4423288;32;20148;-68
2022/05/31 02:31:58;;;;;;;0.30;0.30;;;10.30;99.90;;;;;;4432359;32;20085;-68
2022/05/31 02:34:27;;;;;;;0.20;0.20;;;10.20;99.90;;;;;;4439103;32;20129;-68
2022/05/31 02:36:53;;;;;;;0.40;0.40;;;10.30;99.90;;;;;;4446922;32;20049;-68
2022/05/31 02:39:18;;;;;;;2.40;1.02;;;10.30;99.90;;;;;;4447751;32;20085;-68
2022/05/31 02:41:44;;;;;;;0.40;0.40;;;10.20;99.90;;;;;;4447731;32;20469;-68
2022/05/31 02:44:10;;;;;;;0.60;0.60;;;10.20;99.90;;;;;;4445600;32;20057;-68
2022/05/31 02:46:36;;;;;;;0.40;0.40;;;10.20;99.90;;;;;;4445889;32;20438;-68
2022/05/31 02:49:04;;;;;;;0.30;0.30;;;10.20;99.90;;;;;;4443142;32;20069;-68
2022/05/31 02:51:34;;;;;;;0.30;0.30;;;10.10;99.90;;;;;;4441543;32;20073;-68
2022/05/31 02:53:59;;;;;;;0.30;0.30;;;10.00;99.90;;;;;;4444830;32;20077;-68
2022/05/31 02:56:24;;;;;;;0.30;0.30;;;10.10;99.90;;;;;;4440999;32;20077;-68
2022/05/31 02:58:50;;;;;;;0.60;0.60;;;10.00;99.90;;;;;;4429171;32;20135;-68
2022/05/31 03:01:27;;;;;;;0.45;0.45;;;10.00;99.90;;;;;;4423680;32;20076;-68
2022/05/31 03:03:52;;;;;;;0.40;0.40;;;10.10;99.90;;;;;;4443842;32;20093;-68
2022/05/31 03:06:19;;;;;;;0.35;0.35;;;10.10;99.90;;;;;;4444079;32;20486;-68
2022/05/31 03:08:46;;;;;;;0.30;0.30;;;10.10;99.90;;;;;;4446802;32;20092;-68
2022/05/31 03:11:17;;;;;;;0.20;0.20;;;10.10;99.90;;;;;;4441259;32;20089;-68
2022/05/31 03:13:44;;;;;;;1.75;0.55;;;10.10;99.90;;;;;;4442983;32;20167;-68
2022/05/31 03:16:11;;;;;;;0.25;0.25;;;10.00;99.90;;;;;;4435680;32;20131;-68
2022/05/31 03:18:42;;;;;;;0.50;0.50;;;10.10;99.90;;;;;;4449384;32;20073;-68
2022/05/31 03:21:15;;;;;;;0.30;0.30;;;10.10;99.90;;;;;;4438718;32;20061;-68
2022/05/31 03:23:45;;;;;;;0.35;0.35;;;10.00;99.90;;;;;;4449380;32;20069;-68
2022/05/31 03:26:13;;;;;;;0.32;0.32;;;10.00;99.90;;;;;;4445226;32;20069;-68
2022/05/31 03:28:39;;;;;;;0.30;0.30;;;10.00;99.90;;;;;;4426606;32;20088;-68
2022/05/31 03:31:06;;;;;;;0.25;0.25;;;10.10;99.90;;;;;;4424189;32;20108;-68
2022/05/31 03:33:32;;;;;;;0.50;0.50;;;10.00;99.90;;;;;;4446267;32;20081;-68
2022/05/31 03:35:58;;;;;;;0.40;0.40;;;9.90;99.90;;;;;;4443394;32;20057;-68
2022/05/31 03:38:23;;;;;;;0.37;0.37;;;9.90;99.90;;;;;;4440371;32;20078;-68
2022/05/31 03:40:56;;;;;;;0.22;0.22;;;9.90;99.90;;;;;;4446111;32;20060;-68
2022/05/31 03:43:25;;;;;;;2.00;0.68;;;9.70;99.90;;;;;;4446613;32;20069;-68
2022/05/31 03:45:50;;;;;;;0.40;0.40;;;9.70;99.90;;;;;;4442097;32;20053;-68
2022/05/31 03:48:16;;;;;;;0.30;0.30;;;9.90;99.90;;;;;;4447909;32;20114;-68
2022/05/31 03:50:42;;;;;;;0.40;0.40;;;9.80;99.90;;;;;;4441075;32;20422;-68
2022/05/31 03:53:10;;;;;;;0.40;0.40;;;9.80;99.90;;;;;;4448332;32;20081;-68
2022/05/31 03:55:38;;;;;;;0.40;0.40;;;9.90;99.90;;;;;;4448306;32;20547;-68
2022/05/31 03:58:03;;;;;;;0.30;0.30;;;9.90;99.90;;;;;;4429367;32;20084;-68
2022/05/31 04:00:29;;;;;;;0.30;0.30;;;9.90;99.90;;;;;;4423981;32;20646;-68
2022/05/31 04:02:55;;;;;;;0.30;0.30;;;9.90;99.90;;;;;;4446706;32;20065;-68
2022/05/31 04:05:21;;;;;;;0.25;0.25;;;9.90;99.90;;;;;;4449637;32;20093;-68
2022/05/31 04:07:49;;;;;;;0.30;0.30;;;10.00;99.90;;;;;;4441270;32;20314;-68
2022/05/31 04:10:14;;;;;;;0.20;0.20;;;10.00;99.90;;;;;;4447004;32;20069;-68
2022/05/31 04:12:40;;;;;;;0.55;0.55;;;10.00;99.90;;;;;;4438956;32;20141;-68
2022/05/31 04:15:06;;;;;;;0.30;0.30;;;10.10;99.90;;;;;;4445268;32;20057;-68
2022/05/31 04:17:31;;;;;;;0.30;0.30;;;10.00;99.90;;;;;;4450930;32;20064;-68
2022/05/31 04:19:57;;;;;;;0.37;0.37;;;10.10;99.90;;;;;;4437787;32;20093;-68
2022/05/31 04:22:23;;;;;;;0.22;0.22;;;10.20;99.90;;;;;;4415276;32;20608;-68
2022/05/31 04:24:53;;;;;;;0.62;0.57;;;10.10;99.90;;;;;;4402122;32;20082;-68
2022/05/31 04:27:19;;;;;;;0.40;0.40;;;10.10;99.90;;;;;;4397439;32;20118;-68
2022/05/31 04:29:45;;;;;;;0.40;0.40;;;10.10;99.90;;;;;;4387432;32;20304;-69
2022/05/31 04:32:12;;;;;;;2.40;0.40;;;10.20;99.90;;;;;;4394768;32;20084;-68
2022/05/31 04:34:38;;;;;;;0.70;0.70;;;10.30;99.90;;;;;;4411268;32;20069;-68
2022/05/31 04:37:03;;;;;;;0.73;0.73;;;10.20;99.90;;;;;;4441088;32;20076;-68
2022/05/31 04:39:29;;;;;;;0.43;0.43;;;10.20;99.90;;;;;;4442866;32;20425;-68
2022/05/31 04:41:54;;;;;;;0.20;0.20;;;10.10;99.90;;;;;;4440389;32;20085;-68
2022/05/31 04:44:20;;;;;;;0.65;0.65;;;10.20;99.90;;;;;;4439200;32;20073;-68
2022/05/31 04:46:48;;;;;;;0.32;0.32;;;10.30;99.90;;;;;;4437961;32;20516;-68
2022/05/31 04:49:13;;;;;;;0.28;0.28;;;10.40;99.90;;;;;;4446120;32;20080;-68
2022/05/31 04:51:40;;;;;;;0.40;0.40;;;10.40;99.90;;;;;;4435049;32;20065;-68
2022/05/31 04:54:06;;;;;;;0.40;0.40;;;10.50;99.90;;;;;;4395737;32;20257;-68
2022/05/31 04:56:31;;;;;;;0.40;0.40;;;10.60;99.90;;;;;;4420842;32;20069;-68
2022/05/31 04:58:57;;;;;;;0.40;0.40;;;10.50;99.90;;;;;;4422712;32;20331;-68
2022/05/31 05:01:23;;;;;;;0.47;0.47;;;10.60;99.90;;;;;;4408656;32;20184;-68
2022/05/31 05:03:50;;;;;;;0.32;0.32;;;10.60;99.90;;;;;;4415687;32;20711;-68
2022/05/31 05:06:17;;;;;;;0.22;0.22;;;10.60;99.90;;;;;;4403519;32;20080;-68
2022/05/31 05:08:43;;;;;;;1.27;1.02;;;10.70;99.90;;;;;;4403179;32;20093;-68
2022/05/31 05:11:12;;;;;;;0.30;0.30;;;10.70;99.90;;;;;;4396376;32;20334;-72
2022/05/31 05:13:38;;;;;;;0.40;0.40;;;10.80;99.90;;;;;;4393169;32;20631;-68
2022/05/31 05:16:05;;;;;;;0.32;0.32;;;10.90;99.90;;;;;;4406421;32;20592;-68
2022/05/31 05:18:30;;;;;;;0.77;0.77;;;10.90;99.90;;;;;;4369329;32;20395;-69
2022/05/31 05:20:56;;;;;;;0.40;0.40;;;11.00;99.90;;;;;;4351070;32;20229;-69
2022/05/31 05:23:23;;;;;;;0.30;0.30;;;11.00;99.90;;;;;;4329407;32;20400;-69
2022/05/31 05:25:52;;;;;;;0.40;0.40;;;11.20;99.90;;;;;;4348619;32;20424;-69
2022/05/31 05:30:51;;;;;;;0.30;0.30;;;11.30;99.90;;;;;;4340874;32;20477;-69
2022/05/31 05:31:06;;;;;;;0.45;0.40;;;11.30;99.90;;;;;;4328215;32;20340;-69
2022/05/31 05:33:32;;;;;;;0.30;0.30;;;11.50;99.90;;;;;;4357511;32;20314;-69
2022/05/31 05:35:58;;;;;;;0.32;0.32;;;11.50;99.90;;;;;;4357197;32;20422;-69
2022/05/31 05:38:24;;;;;;;0.30;0.30;;;11.60;99.90;;;;;;4347002;32;20446;-69
2022/05/31 05:40:50;;;;;;;0.35;0.35;;;11.70;99.90;;;;;;4364486;32;20273;-69
2022/05/31 05:43:17;;;;;;;1.65;0.40;;;11.80;99.90;;;;;;4373041;32;20077;-68
2022/05/31 05:45:43;;;;;;;0.40;0.40;;;11.90;99.90;;;;;;4394723;32;20065;-69
2022/05/31 05:48:08;;;;;;;4.47;1.30;;;11.90;99.90;;;;;;4406373;32;20086;-70
2022/05/31 05:50:36;;;;;;;0.32;0.32;;;12.10;99.90;;;;;;4382841;32;20346;-69
2022/05/31 05:53:05;;;;;;;0.30;0.30;;;12.20;99.90;;;;;;4398856;32;20073;-70
2022/05/31 05:55:31;;;;;;;0.30;0.30;;;12.10;99.90;;;;;;4397100;32;20466;-70
2022/05/31 05:57:57;;;;;;;0.65;0.37;;;12.20;99.90;;;;;;4396631;32;20816;-71
2022/05/31 06:00:23;;;;;;;0.40;0.40;;;12.30;99.90;;;;;;4377970;32;20171;-68
2022/05/31 06:02:56;;;;;;;0.30;0.30;;;12.30;99.90;;;;;;4371734;32;20273;-70
2022/05/31 06:05:27;;;;;;;0.25;0.25;;;12.40;99.90;;;;;;4362999;32;20315;-69
2022/05/31 06:08:15;;;;;;;2.08;0.70;;;12.50;99.90;;;;;;4391842;32;20379;-69
2022/05/31 06:10:53;;;;;;;0.30;0.30;;;12.50;99.90;;;;;;4392500;32;20690;-69
2022/05/31 06:13:24;;;;;;;1.30;0.40;;;12.70;99.90;;;;;;4399237;32;21709;-68
2022/05/31 06:15:54;;;;;;;0.40;0.40;;;12.70;99.90;;;;;;4405634;32;20108;-68
2022/05/31 06:18:26;;;;;;;0.30;0.30;;;12.80;99.90;;;;;;4384312;32;20316;-68
2022/05/31 06:20:58;;;;;;;0.40;0.40;;;12.90;99.90;;;;;;4395685;32;20145;-68
2022/05/31 06:23:24;;;;;;;0.85;0.50;;;13.00;99.90;;;;;;4398424;32;20096;-68
2022/05/31 06:25:50;;;;;;;0.43;0.43;;;13.10;99.90;;;;;;4397218;32;20101;-69
2022/05/31 06:28:15;;;;;;;0.30;0.30;;;13.20;99.90;;;;;;4399675;32;20687;-69
2022/05/31 06:30:41;;;;;;;0.20;0.20;;;13.20;99.90;;;;;;4383560;32;20667;-69
2022/05/31 06:33:06;;;;;;;0.30;0.30;;;13.20;99.90;;;;;;4371225;32;21247;-70
2022/05/31 06:35:32;;;;;;;2.67;0.77;;;13.20;99.90;;;;;;4374665;32;20140;-69
2022/05/31 06:37:58;;;;;;;0.43;0.43;;;13.20;99.90;;;;;;4396062;32;20314;-69
2022/05/31 06:40:24;;;;;;;1.27;0.65;;;13.40;99.90;;;;;;4402596;32;20289;-69
2022/05/31 06:42:49;;;;;;;0.20;0.20;;;13.30;99.90;;;;;;4400868;32;20429;-69
2022/05/31 06:45:15;;;;;;;0.30;0.30;;;13.30;99.90;;;;;;4406432;32;20100;-70
2022/05/31 06:47:40;;;;;;;2.50;0.88;;;13.40;99.90;;;;;;4391921;32;21078;-70
2022/05/31 06:50:07;;;;;;;0.50;0.50;;;13.50;99.90;;;;;;4384803;32;20426;-70
2022/05/31 06:56:50;;;;;;;0.20;0.20;;;13.60;99.90;;;;;;4397271;32;20081;-69
2022/05/31 06:58:03;;;;;;;0.50;0.50;;;13.70;99.90;;;;;;4398079;32;20100;-70
2022/05/31 07:00:29;;;;;;;17.73;0.93;;;13.70;99.90;;;;;;4379582;32;20612;-70
2022/05/31 07:02:56;;;;;;;0.20;0.20;;;13.80;99.90;;;;;;4378757;32;20374;-70
2022/05/31 07:05:21;;;;;;;0.30;0.30;;;13.90;99.90;;;;;;4371280;32;20134;-70
2022/05/31 07:07:48;;;;;;;0.40;0.40;;;14.10;99.90;;;;;;4390606;32;20081;-70
2022/05/31 07:10:14;;;;;;;0.50;0.50;;;14.10;99.90;;;;;;4398965;32;20139;-70
2022/05/31 07:12:40;;;;;;;0.40;0.40;;;14.20;99.90;;;;;;4399535;32;20077;-70
2022/05/31 07:15:06;;;;;;;0.30;0.30;;;14.30;99.90;;;;;;4405220;32;20496;-69
2022/05/31 07:17:32;;;;;;;0.50;0.50;;;14.40;99.90;;;;;;4397653;32;20416;-69
2022/05/31 07:19:57;;;;;;;0.30;0.30;;;14.40;99.90;;;;;;4395053;32;20671;-69
2022/05/31 07:22:23;;;;;;;0.30;0.30;;;14.30;99.90;;;;;;4404867;32;20253;-69
2022/05/31 07:24:49;;;;;;;0.40;0.40;;;14.30;99.90;;;;;;4405774;32;20074;-69
2022/05/31 07:27:15;;;;;;;0.40;0.40;;;14.30;99.90;;;;;;4412082;32;20979;-70
2022/05/31 07:29:41;;;;;;;0.30;0.30;;;14.30;99.90;;;;;;4376154;32;20558;-69
2022/05/31 07:32:07;;;;;;;0.40;0.40;;;14.30;99.90;;;;;;4365621;32;20138;-69
2022/05/31 07:34:33;;;;;;;0.60;0.60;;;14.40;99.90;;;;;;4342862;32;20289;-69
2022/05/31 07:36:59;;;;;;;0.32;0.32;;;14.50;99.90;;;;;;4367448;32;20195;-69
2022/05/31 07:39:24;;;;;;;0.30;0.30;;;14.50;99.90;;;;;;4395258;32;20383;-68
2022/05/31 07:41:52;;;;;;;0.30;0.30;;;14.50;99.90;;;;;;4398200;32;20092;-68
2022/05/31 07:44:18;;;;;;;0.30;0.30;;;14.60;99.90;;;;;;4398060;32;20156;-69
2022/05/31 07:46:43;;;;;;;0.40;0.40;;;14.70;99.90;;;;;;4402933;32;20100;-68
2022/05/31 07:49:09;;;;;;;0.30;0.30;;;14.80;99.90;;;;;;4379950;32;20108;-69
2022/05/31 07:51:35;;;;;;;0.20;0.20;;;14.90;99.90;;;;;;4387389;32;20088;-69
2022/05/31 07:54:00;;;;;;;0.40;0.40;;;15.10;99.90;;;;;;4380378;32;20589;-68
2022/05/31 07:56:28;;;;;;;0.40;0.40;;;15.20;99.90;;;;;;4379803;32;20520;-69
2022/05/31 07:58:53;;;;;;;1.95;1.05;;;15.30;99.90;;;;;;4370685;32;20862;-69
2022/05/31 08:01:22;;;;;;;0.30;0.30;;;15.50;99.90;;;;;;4377333;32;20119;-70
2022/05/31 08:03:49;;;;;;;0.22;0.22;;;15.70;99.90;;;;;;4358067;32;20134;-69
2022/05/31 08:06:19;;;;;;;0.60;0.52;;;15.60;99.90;;;;;;4361474;32;20243;-70
2022/05/31 08:08:45;;;;;;;0.40;0.40;;;15.80;99.90;;;;;;4380697;32;20382;-70
2022/05/31 08:11:14;;;;;;;0.37;0.37;;;16.00;99.90;;;;;;4384607;32;21134;-70
2022/05/31 08:13:40;;;;;;;0.35;0.35;;;16.10;99.90;;;;;;4382028;32;20094;-70
2022/05/31 08:16:07;;;;;;;0.30;0.30;;;16.20;99.90;;;;;;4389689;32;20763;-70
2022/05/31 08:18:34;;;;;;;0.30;0.30;;;16.30;99.90;;;;;;4369838;32;20070;-69
2022/05/31 08:21:02;;;;;;;0.40;0.40;;;16.40;99.90;;;;;;4393791;32;20093;-69
2022/05/31 08:23:28;;;;;;;0.40;0.40;;;16.60;99.90;;;;;;4388532;32;20350;-70
2022/05/31 08:25:54;;;;;;;0.55;0.55;;;16.80;99.90;;;;;;4388076;32;20131;-69
2022/05/31 08:28:20;;;;;;;0.37;0.37;;;16.90;99.90;;;;;;4374568;32;20486;-69
2022/05/31 08:30:48;;;;;;;1.00;0.82;;;16.90;99.90;;;;;;4371924;32;21209;-69
2022/05/31 08:33:13;;;;;;;0.30;0.30;;;16.90;99.90;;;;;;4357406;32;20122;-70
2022/05/31 08:35:39;;;;;;;0.40;0.40;;;16.80;99.90;;;;;;4352174;32;20483;-69
2022/05/31 08:38:05;;;;;;;0.30;0.30;;;16.70;99.90;;;;;;4366828;32;20140;-70
2022/05/31 08:40:40;;;;;;;0.30;0.30;;;16.80;99.90;;;;;;4377637;32;20158;-70
2022/05/31 08:43:07;;;;;;;0.40;0.40;;;16.90;99.90;;;;;;4375096;32;20260;-70
2022/05/31 08:45:44;;;;;;;0.30;0.30;;;16.90;99.90;;;;;;4375439;32;20097;-70
2022/05/31 08:48:32;;;;;;;0.40;0.40;;;17.00;99.90;;;;;;4369206;32;20954;-70
2022/05/31 08:52:04;;;;;;;2.50;1.02;;;17.00;99.90;;;;;;4389150;32;20134;-69
2022/05/31 08:56:59;;;;;;;0.73;0.73;;;17.20;99.30;;;;;;4390673;32;20662;-70
2022/05/31 08:57:01;;;;;;;0.70;0.70;;;17.10;98.40;;;;;;4383428;32;20109;-69
2022/05/31 08:59:48;;;;;;;3.03;1.58;;;17.20;98.40;;;;;;4382072;32;20613;-69
2022/05/31 09:02:23;;;;;;;1.95;1.10;;;17.20;96.80;;;;;;4374409;32;20117;-69
2022/05/31 09:05:03;;;;;;;0.30;0.30;;;17.30;97.30;;;;;;4341271;32;20402;-70
2022/05/31 09:07:38;;;;;;;0.60;0.60;;;17.60;96.70;;;;;;4356743;32;20266;-71
2022/05/31 09:10:12;;;;;;;0.40;0.40;;;17.70;96.60;;;;;;4362224;32;20089;-69
2022/05/31 09:12:46;;;;;;;0.73;0.70;;;17.80;98.20;;;;;;4375457;32;20247;-68
2022/05/31 09:15:21;;;;;;;0.50;0.50;;;17.90;97.10;;;;;;4368908;32;20166;-71
2022/05/31 09:18:11;;;;;;;0.30;0.30;;;17.90;97.20;;;;;;4367093;32;20203;-71
2022/05/31 09:21:00;;;;;;;1.02;0.90;;;17.90;97.60;;;;;;4352517;32;20193;-71
2022/05/31 09:23:30;;;;;;;0.30;0.30;;;18.10;96.10;;;;;;4352508;32;21444;-71
2022/05/31 09:26:11;;;;;;;0.55;0.55;;;18.10;96.00;;;;;;4379063;32;20347;-71
2022/05/31 09:28:48;;;;;;;0.40;0.40;;;17.90;95.60;;;;;;4378552;32;20141;-71
2022/05/31 09:31:39;;;;;;;0.30;0.30;;;17.40;95.30;;;;;;4379123;32;20220;-70
2022/05/31 09:34:41;;;;;;;0.37;0.37;;;17.40;95.40;;;;;;4354293;32;21055;-69
2022/05/31 09:37:33;;;;;;;0.50;0.50;;;17.80;95.90;;;;;;4373044;32;24081;-69
2022/05/31 09:40:17;;;;;;;0.35;0.35;;;18.20;94.70;;;;;;4396247;32;20662;-69
2022/05/31 09:42:57;;;;;;;0.40;0.40;;;18.00;94.20;;;;;;4392586;32;20677;-69
2022/05/31 09:45:22;;;;;;;0.30;0.30;;;17.80;95.60;;;;;;4387817;32;20516;-70
2022/05/31 09:47:50;;;;;;;0.47;0.47;;;18.00;94.90;;;;;;4386408;32;20268;-70
2022/05/31 09:50:24;;;;;;;0.40;0.40;;;18.00;94.70;;;;;;4369886;32;20324;-70
2022/05/31 09:52:56;;;;;;;0.80;0.50;;;18.00;94.50;;;;;;4377006;32;20272;-70
2022/05/31 09:57:34;;;;;;;0.30;0.30;;;17.60;95.00;;;;;;4387995;32;20096;-70
2022/05/31 09:58:38;;;;;;;0.30;0.30;;;17.40;95.40;;;;;;4388359;32;20445;-70
2022/05/31 10:01:21;;;;;;;0.40;0.40;;;17.50;95.30;;;;;;4375428;32;20121;-69
2022/05/31 10:03:53;;;;;;;0.50;0.37;;;17.60;94.70;;;;;;4352757;32;21488;-70
2022/05/31 10:06:22;;;;;;;0.47;0.47;;;17.90;95.30;;;;;;4370724;32;20151;-69
2022/05/31 10:08:51;;;;;;;0.40;0.40;;;18.30;95.30;;;;;;4385118;32;20705;-70
2022/05/31 10:11:43;;;;;;;0.30;0.30;;;18.80;95.40;;;;;;4397895;32;20098;-70
2022/05/31 10:14:22;;;;;;;1.17;0.40;;;19.20;93.00;;;;;;4397167;32;20101;-71
2022/05/31 10:16:49;;;;;;;0.30;0.30;;;19.40;91.10;;;;;;4389953;32;20130;-69
2022/05/31 10:19:25;;;;;;;0.73;0.68;;;19.10;90.80;;;;;;4373255;32;20391;-72
2022/05/31 10:21:51;;;;;;;0.30;0.30;;;18.90;91.10;;;;;;4370238;32;20860;-71
2022/05/31 10:24:22;;;;;;;0.28;0.28;;;18.80;92.00;;;;;;4377410;32;20076;-70
2022/05/31 10:27:09;;;;;;;0.30;0.30;;;18.50;92.30;;;;;;4392373;32;20440;-70
2022/05/31 10:30:08;;;;;;;0.30;0.30;;;18.40;92.50;;;;;;4378145;32;21394;-70
2022/05/31 10:32:53;;;;;;;0.30;0.30;;;18.10;92.80;;;;;;4381110;32;20473;-70
2022/05/31 10:35:24;;;;;;;0.40;0.40;;;18.10;93.60;;;;;;4375425;32;21225;-68
2022/05/31 10:37:57;;;;;;;0.47;0.47;;;18.00;93.00;;;;;;4389876;32;20121;-70
2022/05/31 10:40:29;;;;;;;0.40;0.40;;;18.40;93.20;;;;;;4398708;32;20465;-69
2022/05/31 10:43:04;;;;;;;0.40;0.40;;;18.90;91.60;;;;;;4402602;32;20089;-70
2022/05/31 10:45:31;;;;;;;0.32;0.32;;;19.30;90.70;;;;;;4396282;32;20305;-70
2022/05/31 10:47:58;;;;;;;0.70;0.52;;;19.10;91.60;;;;;;4387860;32;20209;-70
2022/05/31 10:50:44;;;;;;;0.50;0.50;;;19.10;93.70;;;;;;4379908;32;20207;-69
2022/05/31 10:53:17;;;;;;;1.45;1.25;;;18.90;91.60;;;;;;4376240;32;20338;-69
2022/05/31 10:55:51;;;;;;;0.30;0.30;;;18.80;92.60;;;;;;4380865;32;20098;-68
2022/05/31 10:58:52;;;;;;;0.90;0.50;;;18.80;92.00;;;;;;4375281;32;20091;-67
2022/05/31 11:01:42;;;;;;;0.70;0.70;;;18.90;93.40;;;;;;4376392;32;20327;-68
2022/05/31 11:04:27;;;;;;;0.30;0.30;;;19.10;92.90;;;;;;4377903;32;20077;-68
2022/05/31 11:07:04;;;;;;;0.40;0.40;;;20.00;92.30;;;;;;4398129;32;20671;-68
2022/05/31 11:11:41;;;;;;;0.30;0.30;;;20.00;90.40;;;;;;4396276;32;20289;-68
2022/05/31 11:13:09;;;;;;;0.40;0.40;;;20.20;90.10;;;;;;4390958;32;20189;-69
2022/05/31 11:15:54;;;;;;;0.57;0.57;;;20.80;88.20;;;;;;4398779;32;20533;-69
2022/05/31 11:18:35;;;;;;;0.88;0.50;;;20.60;89.40;;;;;;4390257;32;20603;-69
2022/05/31 11:21:14;;;;;;;0.95;0.75;;;21.00;90.20;;;;;;4387883;32;21270;-69
2022/05/31 11:24:20;;;;;;;0.30;0.30;;;21.00;88.30;;;;;;4383369;32;20520;-68
2022/05/31 11:26:58;;;;;;;0.30;0.30;;;20.30;85.90;;;;;;4383058;32;20199;-70
2022/05/31 11:29:37;;;;;;;0.30;0.30;;;20.30;87.80;;;;;;4385696;32;20198;-69
2022/05/31 11:32:17;;;;;;;0.65;0.65;;;20.70;84.50;;;;;;4376042;32;20378;-68
2022/05/31 11:35:01;;;;;;;0.40;0.40;;;21.20;84.10;;;;;;4382108;32;21066;-68
2022/05/31 11:37:29;;;;;;;0.60;0.60;;;21.00;84.30;;;;;;4387895;32;20089;-70
2022/05/31 11:40:03;;;;;;;0.40;0.40;;;20.90;86.20;;;;;;4381787;32;20115;-69
2022/05/31 11:43:09;;;;;;;0.73;0.62;;;21.00;89.40;;;;;;4384693;32;20871;-69
2022/05/31 11:45:56;;;;;;;0.30;0.30;;;20.80;90.10;;;;;;4367302;32;20878;-69
2022/05/31 11:48:28;;;;;;;0.37;0.37;;;21.50;83.10;;;;;;4374738;32;20405;-69
2022/05/31 11:51:14;;;;;;;0.45;0.40;;;21.70;87.30;;;;;;4383482;32;20260;-69
2022/05/31 11:54:07;;;;;;;2.75;0.60;;;22.00;82.50;;;;;;4387980;32;20233;-69
2022/05/31 11:57:02;;;;;;;0.30;0.30;;;21.50;82.60;;;;;;4395844;32;21160;-69
2022/05/31 11:59:39;;;;;;;0.20;0.20;;;22.00;83.10;;;;;;4393270;32;20930;-69
2022/05/31 12:02:18;;;;;;;0.20;0.20;;;23.10;81.10;;;;;;4397306;32;20893;-69
2022/05/31 12:05:13;;;;;;;0.57;0.57;;;23.20;79.20;;;;;;4390210;32;20413;-69
2022/05/31 12:07:48;;;;;;;0.30;0.30;;;22.20;81.30;;;;;;4400049;32;20531;-70
2022/05/31 12:10:38;;;;;;;0.30;0.30;;;21.10;82.20;;;;;;4400930;32;20375;-70
2022/05/31 12:13:08;;;;;;;0.30;0.30;;;20.80;85.10;;;;;;4391449;32;20439;-68
2022/05/31 12:15:36;;;;;;;0.20;0.20;;;21.60;83.60;;;;;;4387240;32;20217;-70
2022/05/31 12:18:17;;;;;;;3.40;0.30;;;22.60;81.10;;;;;;4389313;32;20348;-70
2022/05/31 12:21:14;;;;;;;1.80;1.05;;;22.80;78.80;;;;;;4397635;32;20159;-69
2022/05/31 12:23:59;;;;;;;0.22;0.22;;;22.20;80.70;;;;;;4392498;32;20262;-69
2022/05/31 12:26:39;;;;;;;0.20;0.20;;;21.60;82.00;;;;;;4397101;32;20223;-69
2022/05/31 12:29:11;;;;;;;0.30;0.30;;;21.40;81.00;;;;;;4384592;32;20093;-69
2022/05/31 12:31:38;;;;;;;0.20;0.20;;;21.20;82.60;;;;;;4383891;32;20170;-69
2022/05/31 12:34:14;;;;;;;0.37;0.37;;;20.80;83.20;;;;;;4368748;32;20120;-69
2022/05/31 12:37:02;;;;;;;0.20;0.20;;;22.00;82.60;;;;;;4383510;32;20084;-70
2022/05/31 12:39:32;;;;;;;0.20;0.20;;;23.30;75.70;;;;;;4381549;32;20460;-70
2022/05/31 12:42:15;;;;;;;0.30;0.30;;;23.80;76.50;;;;;;4394957;32;20371;-70
2022/05/31 12:44:44;;;;;;;0.50;0.32;;;23.60;77.60;;;;;;4389089;32;20115;-69
2022/05/31 12:47:31;;;;;;;0.30;0.30;;;22.70;77.00;;;;;;4394917;32;20488;-70
2022/05/31 12:50:03;;;;;;;1.10;0.30;;;22.00;80.40;;;;;;4387020;32;20249;-69
2022/05/31 12:55:14;;;;;;;0.40;0.40;;;21.60;83.10;;;;;;4417735;32;20159;-70
2022/05/31 12:58:44;;;;;;;0.20;0.20;;;21.40;79.30;;;;;;4417955;32;20065;-70
2022/05/31 13:00:37;;;;;;;0.10;0.10;;;22.00;77.90;;;;;;4399005;32;20081;-69
2022/05/31 13:03:23;;;;;;;1.37;0.95;;;22.20;78.90;;;;;;4383946;32;20166;-70
2022/05/31 13:06:18;;;;;;;0.20;0.20;;;22.20;79.30;;;;;;4396734;32;20094;-69
2022/05/31 13:08:55;;;;;;;0.35;0.35;;;22.10;80.00;;;;;;4403340;32;20109;-70
2022/05/31 13:19:37;;;;;;;0.30;0.30;;;20.90;81.80;;;;;;4397796;32;20125;-69
2022/05/31 13:20:20;;;;;;;0.20;0.20;;;21.90;79.40;;;;;;4395011;32;20330;-70
2022/05/31 13:22:51;;;;;;;0.40;0.40;;;23.50;77.80;;;;;;4400676;32;20077;-70